M/V Raymond M. — WDC4224 — position and weather

sailwx.info

Track history (hours):
 
Tides and Currents Weather Stations Pressure Air Temp Water Temp Dewpoint Dewpoint Depression Visibility Wind Speed Wind Dir Waves Ship Positions

M/V Raymond M.

Owner: RM Leasing, Clute, TX. More information available from US FCC via Universal Licensing System and Coast Guard Vessel Documentation Center.

Last reported at 2017-Dec-11 06:42 UTC. Time now 2017-Dec-13 05:20 UTC.
Position N 29°44' W 093°20'.

; draft 2.2 m.

MMSI: 367021170.

Date/timePositionNaut miles runAvg speedWind from/ knotsBaromVisibWave heightAir tempDewpointWater temp
2017-Dec-11 06:42N 29°44' W 093°20'315.4
2017-Dec-11 06:30N 29°47' W 093°21'3 5.6
2017-Dec-11 06:00N 29°49' W 093°20'0 0.0
2017-Dec-11 05:30N 29°49' W 093°20'0 0.0
2017-Dec-11 04:59N 29°49' W 093°20'0 0.0
2017-Dec-11 04:30N 29°49' W 093°20'0 0.0
2017-Dec-11 04:00N 29°49' W 093°20'0 0.0
2017-Dec-11 03:30N 29°49' W 093°20'0 0.1
2017-Dec-11 03:00N 29°49' W 093°20'0 0.1
2017-Dec-11 02:30N 29°49' W 093°20'0 0.0
2017-Dec-08 23:19N 29°49' W 093°20'  
2017-Dec-04 06:22N 29°41' W 092°15'411.0
2017-Dec-04 06:01N 29°45' W 092°13'3 5.5
2017-Dec-04 05:30N 29°47' W 092°11'0 0.0
2017-Dec-04 05:00N 29°47' W 092°11'0 0.0
2017-Dec-04 04:31N 29°47' W 092°11'0 0.0
2017-Dec-04 04:00N 29°47' W 092°11'0 0.0
2017-Dec-04 03:31N 29°47' W 092°11'0 0.0
2017-Dec-04 03:01N 29°47' W 092°11'0 0.0
2017-Dec-04 02:30N 29°47' W 092°11'3 6.1
2017-Dec-04 02:01N 29°45' W 092°13'611.0
2017-Dec-04 01:30N 29°39' W 092°16'57 2.8
2017-Dec-03 05:22N 29°48' W 093°21'1 0.1
2017-Dec-02 12:38N 29°49' W 093°20'1 5.6
2017-Dec-02 12:30N 29°49' W 093°21'1 0.7
2017-Dec-02 10:47N 29°48' W 093°20'1 0.4
2017-Dec-02 09:06N 29°47' W 093°20'0 0.3
2017-Dec-02 07:49N 29°48' W 093°20'2 5.2
2017-Dec-02 07:28N 29°49' W 093°20'0 0.0
2017-Dec-02 06:57N 29°49' W 093°20'0 0.7
2017-Dec-02 06:29N 29°49' W 093°21'  
Track history (hours):
 
Tides and Currents Weather Stations Pressure Air Temp Water Temp Dewpoint Dewpoint Depression Visibility Wind Speed Wind Dir Waves Ship Positions

M/V Raymond M.

Owner: RM Leasing, Clute, TX. More information available from US FCC via Universal Licensing System and Coast Guard Vessel Documentation Center.

Last reported at 2017-Dec-11 06:42 UTC. Time now 2017-Dec-13 05:20 UTC.
Position N 29°44' W 093°20'.

; draft 2.2 m.

MMSI: 367021170.

Date/timePositionNaut miles runAvg speedWind from/ knotsBaromVisibWave heightAir tempDewpointWater temp
2017-Dec-11 06:42N 29°44' W 093°20'315.4
2017-Dec-11 06:30N 29°47' W 093°21'3 5.6
2017-Dec-11 06:00N 29°49' W 093°20'0 0.0
2017-Dec-11 05:30N 29°49' W 093°20'0 0.0
2017-Dec-11 04:59N 29°49' W 093°20'0 0.0
2017-Dec-11 04:30N 29°49' W 093°20'0 0.0
2017-Dec-11 04:00N 29°49' W 093°20'0 0.0
2017-Dec-11 03:30N 29°49' W 093°20'0 0.1
2017-Dec-11 03:00N 29°49' W 093°20'0 0.1
2017-Dec-11 02:30N 29°49' W 093°20'0 0.0
2017-Dec-08 23:19N 29°49' W 093°20'  
2017-Dec-04 06:22N 29°41' W 092°15'411.0
2017-Dec-04 06:01N 29°45' W 092°13'3 5.5
2017-Dec-04 05:30N 29°47' W 092°11'0 0.0
2017-Dec-04 05:00N 29°47' W 092°11'0 0.0
2017-Dec-04 04:31N 29°47' W 092°11'0 0.0
2017-Dec-04 04:00N 29°47' W 092°11'0 0.0
2017-Dec-04 03:31N 29°47' W 092°11'0 0.0
2017-Dec-04 03:01N 29°47' W 092°11'0 0.0
2017-Dec-04 02:30N 29°47' W 092°11'3 6.1
2017-Dec-04 02:01N 29°45' W 092°13'611.0
2017-Dec-04 01:30N 29°39' W 092°16'57 2.8
2017-Dec-03 05:22N 29°48' W 093°21'1 0.1
2017-Dec-02 12:38N 29°49' W 093°20'1 5.6
2017-Dec-02 12:30N 29°49' W 093°21'1 0.7
2017-Dec-02 10:47N 29°48' W 093°20'1 0.4
2017-Dec-02 09:06N 29°47' W 093°20'0 0.3
2017-Dec-02 07:49N 29°48' W 093°20'2 5.2
2017-Dec-02 07:28N 29°49' W 093°20'0 0.0
2017-Dec-02 06:57N 29°49' W 093°20'0 0.7
2017-Dec-02 06:29N 29°49' W 093°21'  

Dump ship's entire track history